MBO weather

Mamburao Airport
Mindoro Occidental Province, Philippines

Public forecast

Using degrees Celsius for public forecast. Weather courtesy of forecast.io.

Closest aviation weather report (METAR) to Mamburao Airport

Closest report is Ninoy Aquino International Airport, 81.7 nm (151.4 km) NNE. Retrieved 2020/01/26 01:00 UTC (52 minutes ago):

RPLL 260100Z VRB02KT 9999 FEW023 SCT300 28/23 Q1012 NOSIG RMK A2988

Closest aviation forecast (TAF) to Mamburao Airport

Closest forecast is Ninoy Aquino International Airport, 81.7 nm (151.4 km) NNE. Retrieved 2020-01-26 00:00 UTC (2 hours ago):

TAF RPLL 252300Z 2600/2706 07006KT 9999 FEW025 SCT100 TX31/2606Z TN25/2622Z TEMPO 2600/2606 11008KT SCT023 BKN100 TEMPO 2606/2612 VRB03KT SCT023 BKN090